sensor_id;sensor_type;location;lat;lon;timestamp;pressure;altitude;pressure_sealevel;temperature;humidity
54270;BME280;40181;51.560;13.000;2023-07-29T00:00:33;99985.22;;;20.51;90.28
54270;BME280;40181;51.560;13.000;2023-07-29T00:03:02;99960.03;;;20.60;90.08
54270;BME280;40181;51.560;13.000;2023-07-29T00:05:32;99970.63;;;20.38;90.74
54270;BME280;40181;51.560;13.000;2023-07-29T00:08:01;99957.63;;;20.28;91.63
54270;BME280;40181;51.560;13.000;2023-07-29T00:10:30;99960.56;;;20.21;91.69
54270;BME280;40181;51.560;13.000;2023-07-29T00:13:00;99957.03;;;20.20;92.17
54270;BME280;40181;51.560;13.000;2023-07-29T00:15:29;99964.59;;;20.07;92.45
54270;BME280;40181;51.560;13.000;2023-07-29T00:18:01;99961.09;;;20.30;91.39
54270;BME280;40181;51.560;13.000;2023-07-29T00:20:30;99958.91;;;20.18;92.28
54270;BME280;40181;51.560;13.000;2023-07-29T00:22:59;99952.03;;;20.11;92.36
54270;BME280;40181;51.560;13.000;2023-07-29T00:25:29;99947.88;;;20.02;92.85
54270;BME280;40181;51.560;13.000;2023-07-29T00:27:58;99945.84;;;19.83;94.44
54270;BME280;40181;51.560;13.000;2023-07-29T00:30:27;99936.22;;;19.79;94.24
54270;BME280;40181;51.560;13.000;2023-07-29T00:32:59;99941.25;;;19.88;93.64
54270;BME280;40181;51.560;13.000;2023-07-29T00:35:28;99942.13;;;20.14;92.13
54270;BME280;40181;51.560;13.000;2023-07-29T00:37:57;99933.44;;;19.82;93.83
54270;BME280;40181;51.560;13.000;2023-07-29T00:40:28;99944.09;;;19.82;94.88
54270;BME280;40181;51.560;13.000;2023-07-29T00:42:58;99941.06;;;19.68;95.45
54270;BME280;40181;51.560;13.000;2023-07-29T00:45:29;99937.31;;;19.73;95.12
54270;BME280;40181;51.560;13.000;2023-07-29T00:48:01;99928.25;;;19.79;95.16
54270;BME280;40181;51.560;13.000;2023-07-29T00:50:32;99920.81;;;19.62;95.75
54270;BME280;40181;51.560;13.000;2023-07-29T00:53:01;99929.03;;;19.56;95.60
54270;BME280;40181;51.560;13.000;2023-07-29T00:55:31;99929.44;;;19.43;97.53
54270;BME280;40181;51.560;13.000;2023-07-29T00:58:00;99936.81;;;19.35;97.53
54270;BME280;40181;51.560;13.000;2023-07-29T01:00:30;99931.44;;;19.63;96.24
54270;BME280;40181;51.560;13.000;2023-07-29T01:03:02;99933.25;;;19.63;96.34
54270;BME280;40181;51.560;13.000;2023-07-29T01:05:35;99927.03;;;19.62;96.88
54270;BME280;40181;51.560;13.000;2023-07-29T01:08:12;99918.41;;;19.54;96.71
54270;BME280;40181;51.560;13.000;2023-07-29T01:10:54;99915.56;;;19.60;96.59
54270;BME280;40181;51.560;13.000;2023-07-29T01:13:33;99911.00;;;19.64;96.00
54270;BME280;40181;51.560;13.000;2023-07-29T01:16:14;99915.44;;;19.63;95.83
54270;BME280;40181;51.560;13.000;2023-07-29T01:18:50;99917.50;;;19.55;96.56
54270;BME280;40181;51.560;13.000;2023-07-29T01:21:21;99913.75;;;19.61;96.45
54270;BME280;40181;51.560;13.000;2023-07-29T01:23:57;99911.00;;;19.37;98.09
54270;BME280;40181;51.560;13.000;2023-07-29T01:26:27;99909.69;;;19.49;97.27
54270;BME280;40181;51.560;13.000;2023-07-29T01:28:56;99913.75;;;19.61;97.39
54270;BME280;40181;51.560;13.000;2023-07-29T01:31:30;99907.88;;;19.51;97.06
54270;BME280;40181;51.560;13.000;2023-07-29T01:34:11;99911.34;;;19.53;97.13
54270;BME280;40181;51.560;13.000;2023-07-29T01:36:45;99920.16;;;19.81;95.56
54270;BME280;40181;51.560;13.000;2023-07-29T01:39:20;99924.41;;;19.61;97.03
54270;BME280;40181;51.560;13.000;2023-07-29T01:41:50;99915.00;;;19.51;96.88
54270;BME280;40181;51.560;13.000;2023-07-29T01:44:20;99922.44;;;19.41;97.61
54270;BME280;40181;51.560;13.000;2023-07-29T01:46:49;99918.56;;;19.49;97.58
54270;BME280;40181;51.560;13.000;2023-07-29T01:49:18;99918.38;;;19.29;98.80
54270;BME280;40181;51.560;13.000;2023-07-29T01:51:47;99921.41;;;19.45;98.34
54270;BME280;40181;51.560;13.000;2023-07-29T01:54:19;99926.75;;;19.43;98.48
54270;BME280;40181;51.560;13.000;2023-07-29T01:56:48;99918.72;;;19.45;98.01
54270;BME280;40181;51.560;13.000;2023-07-29T01:59:18;99928.06;;;19.31;99.01
54270;BME280;40181;51.560;13.000;2023-07-29T02:01:47;99921.56;;;19.40;98.56
54270;BME280;40181;51.560;13.000;2023-07-29T02:04:16;99924.88;;;19.20;99.40
54270;BME280;40181;51.560;13.000;2023-07-29T02:06:45;99920.91;;;19.33;99.34
54270;BME280;40181;51.560;13.000;2023-07-29T02:09:14;99928.06;;;19.31;99.40
54270;BME280;40181;51.560;13.000;2023-07-29T02:11:46;99928.94;;;19.32;99.56
54270;BME280;40181;51.560;13.000;2023-07-29T02:14:15;99928.16;;;19.28;99.19
54270;BME280;40181;51.560;13.000;2023-07-29T02:16:44;99933.59;;;19.52;98.40
54270;BME280;40181;51.560;13.000;2023-07-29T02:19:13;99928.31;;;19.51;98.11
54270;BME280;40181;51.560;13.000;2023-07-29T02:21:42;99928.63;;;19.41;98.51
54270;BME280;40181;51.560;13.000;2023-07-29T02:24:11;99928.78;;;19.37;99.56
54270;BME280;40181;51.560;13.000;2023-07-29T02:26:41;99934.44;;;19.53;98.60
54270;BME280;40181;51.560;13.000;2023-07-29T02:29:13;99929.56;;;19.66;97.35
54270;BME280;40181;51.560;13.000;2023-07-29T02:31:42;99928.56;;;19.70;97.32
54270;BME280;40181;51.560;13.000;2023-07-29T02:34:11;99937.06;;;19.54;98.14
54270;BME280;40181;51.560;13.000;2023-07-29T02:36:40;99927.63;;;19.45;98.98
54270;BME280;40181;51.560;13.000;2023-07-29T02:39:10;99926.56;;;19.49;99.01
54270;BME280;40181;51.560;13.000;2023-07-29T02:41:40;99916.31;;;19.64;98.14
54270;BME280;40181;51.560;13.000;2023-07-29T02:44:09;99938.97;;;19.51;99.06
54270;BME280;40181;51.560;13.000;2023-07-29T02:46:40;99941.44;;;19.57;98.82
54270;BME280;40181;51.560;13.000;2023-07-29T02:49:10;99923.56;;;19.33;99.53
54270;BME280;40181;51.560;13.000;2023-07-29T02:51:39;99919.16;;;19.32;100.00
54270;BME280;40181;51.560;13.000;2023-07-29T02:54:08;99924.25;;;19.39;99.91
54270;BME280;40181;51.560;13.000;2023-07-29T02:56:37;99926.09;;;19.63;98.66
54270;BME280;40181;51.560;13.000;2023-07-29T02:59:06;99917.53;;;19.54;99.61
54270;BME280;40181;51.560;13.000;2023-07-29T03:01:38;99908.84;;;19.48;100.00
54270;BME280;40181;51.560;13.000;2023-07-29T03:04:07;99915.31;;;19.41;100.00
54270;BME280;40181;51.560;13.000;2023-07-29T03:06:38;99911.56;;;19.47;100.00
54270;BME280;40181;51.560;13.000;2023-07-29T03:09:08;99915.75;;;19.27;100.00
54270;BME280;40181;51.560;13.000;2023-07-29T03:11:37;99912.44;;;19.47;100.00
54270;BME280;40181;51.560;13.000;2023-07-29T03:14:06;99913.22;;;19.51;99.92
54270;BME280;40181;51.560;13.000;2023-07-29T03:16:38;99914.06;;;19.52;99.97
54270;BME280;40181;51.560;13.000;2023-07-29T03:19:07;99913.69;;;19.62;99.03
54270;BME280;40181;51.560;13.000;2023-07-29T03:21:36;99914.47;;;19.66;99.02
54270;BME280;40181;51.560;13.000;2023-07-29T03:24:05;99909.47;;;19.30;100.00
54270;BME280;40181;51.560;13.000;2023-07-29T03:26:34;99913.28;;;19.48;100.00
54270;BME280;40181;51.560;13.000;2023-07-29T03:29:04;99923.19;;;19.44;100.00
54270;BME280;40181;51.560;13.000;2023-07-29T03:31:33;99920.31;;;19.51;100.00
54270;BME280;40181;51.560;13.000;2023-07-29T03:34:04;99922.47;;;19.39;100.00
54270;BME280;40181;51.560;13.000;2023-07-29T03:36:36;99925.59;;;19.52;100.00
54270;BME280;40181;51.560;13.000;2023-07-29T03:39:05;99922.59;;;19.63;100.00
54270;BME280;40181;51.560;13.000;2023-07-29T03:41:35;99919.16;;;19.59;100.00
54270;BME280;40181;51.560;13.000;2023-07-29T03:44:04;99912.38;;;19.49;100.00
54270;BME280;40181;51.560;13.000;2023-07-29T03:46:33;99915.47;;;19.62;100.00
54270;BME280;40181;51.560;13.000;2023-07-29T03:49:05;99923.91;;;19.49;100.00
54270;BME280;40181;51.560;13.000;2023-07-29T03:51:34;99919.41;;;19.25;100.00
54270;BME280;40181;51.560;13.000;2023-07-29T03:54:03;99914.13;;;19.50;100.00
54270;BME280;40181;51.560;13.000;2023-07-29T03:56:32;99912.47;;;19.46;100.00
54270;BME280;40181;51.560;13.000;2023-07-29T03:59:03;99914.66;;;19.60;100.00
54270;BME280;40181;51.560;13.000;2023-07-29T04:01:33;99911.59;;;19.72;99.52
54270;BME280;40181;51.560;13.000;2023-07-29T04:04:05;99918.06;;;19.38;100.00
54270;BME280;40181;51.560;13.000;2023-07-29T04:06:34;99918.81;;;19.69;99.85
54270;BME280;40181;51.560;13.000;2023-07-29T04:09:03;99926.38;;;19.81;98.68
54270;BME280;40181;51.560;13.000;2023-07-29T04:11:33;99929.22;;;19.76;99.65
54270;BME280;40181;51.560;13.000;2023-07-29T04:14:02;99925.66;;;19.51;100.00
54270;BME280;40181;51.560;13.000;2023-07-29T04:16:31;99923.91;;;19.49;100.00
54270;BME280;40181;51.560;13.000;2023-07-29T04:19:00;99929.59;;;19.39;100.00
54270;BME280;40181;51.560;13.000;2023-07-29T04:21:32;99924.19;;;19.42;100.00
54270;BME280;40181;51.560;13.000;2023-07-29T04:24:01;99916.81;;;19.50;100.00
54270;BME280;40181;51.560;13.000;2023-07-29T04:26:31;99913.59;;;19.66;100.00
54270;BME280;40181;51.560;13.000;2023-07-29T04:29:00;99917.97;;;19.41;100.00
54270;BME280;40181;51.560;13.000;2023-07-29T04:31:29;99929.28;;;19.48;100.00
54270;BME280;40181;51.560;13.000;2023-07-29T04:33:58;99930.81;;;19.28;100.00
54270;BME280;40181;51.560;13.000;2023-07-29T04:36:27;99937.09;;;19.53;100.00
54270;BME280;40181;51.560;13.000;2023-07-29T04:38:59;99927.78;;;19.66;100.00
54270;BME280;40181;51.560;13.000;2023-07-29T04:41:28;99920.50;;;19.71;100.00
54270;BME280;40181;51.560;13.000;2023-07-29T04:43:57;99931.06;;;19.74;99.94
54270;BME280;40181;51.560;13.000;2023-07-29T04:46:26;99928.03;;;19.85;98.60
54270;BME280;40181;51.560;13.000;2023-07-29T04:48:56;99930.00;;;19.79;99.67
54270;BME280;40181;51.560;13.000;2023-07-29T04:51:25;99939.72;;;19.81;99.08
54270;BME280;40181;51.560;13.000;2023-07-29T04:53:54;99943.41;;;19.77;99.58
54270;BME280;40181;51.560;13.000;2023-07-29T04:56:26;99927.06;;;19.61;100.00
54270;BME280;40181;51.560;13.000;2023-07-29T04:58:55;99930.25;;;19.72;99.90
54270;BME280;40181;51.560;13.000;2023-07-29T05:01:24;99930.47;;;19.66;100.00
54270;BME280;40181;51.560;13.000;2023-07-29T05:03:53;99927.19;;;19.83;99.19
54270;BME280;40181;51.560;13.000;2023-07-29T05:06:22;99920.84;;;19.87;99.27
54270;BME280;40181;51.560;13.000;2023-07-29T05:08:52;99926.81;;;19.69;100.00
54270;BME280;40181;51.560;13.000;2023-07-29T05:11:21;99912.28;;;19.77;99.99
54270;BME280;40181;51.560;13.000;2023-07-29T05:13:53;99908.28;;;19.91;98.87
54270;BME280;40181;51.560;13.000;2023-07-29T05:16:22;99919.28;;;19.82;99.26
54270;BME280;40181;51.560;13.000;2023-07-29T05:18:51;99919.78;;;19.91;98.26
54270;BME280;40181;51.560;13.000;2023-07-29T05:21:20;99901.63;;;20.03;97.46
54270;BME280;40181;51.560;13.000;2023-07-29T05:23:49;99904.94;;;19.84;98.80
54270;BME280;40181;51.560;13.000;2023-07-29T05:26:18;99894.88;;;19.94;98.47
54270;BME280;40181;51.560;13.000;2023-07-29T05:28:48;99906.97;;;19.77;98.54
54270;BME280;40181;51.560;13.000;2023-07-29T05:31:19;99896.69;;;19.92;98.41
54270;BME280;40181;51.560;13.000;2023-07-29T05:33:49;99900.91;;;19.99;97.74
54270;BME280;40181;51.560;13.000;2023-07-29T05:36:19;99907.25;;;19.95;97.79
54270;BME280;40181;51.560;13.000;2023-07-29T05:38:48;99884.66;;;20.06;97.22
54270;BME280;40181;51.560;13.000;2023-07-29T05:41:17;99893.16;;;20.17;96.98
54270;BME280;40181;51.560;13.000;2023-07-29T05:43:47;99892.03;;;19.99;98.07
54270;BME280;40181;51.560;13.000;2023-07-29T05:46:18;99890.25;;;20.23;96.82
54270;BME280;40181;51.560;13.000;2023-07-29T05:48:48;99898.59;;;20.14;96.90
54270;BME280;40181;51.560;13.000;2023-07-29T05:51:17;99890.38;;;20.20;96.36
54270;BME280;40181;51.560;13.000;2023-07-29T05:53:46;99897.03;;;20.32;95.63
54270;BME280;40181;51.560;13.000;2023-07-29T05:56:15;99893.97;;;20.19;95.76
54270;BME280;40181;51.560;13.000;2023-07-29T05:58:44;99893.16;;;20.17;95.82
54270;BME280;40181;51.560;13.000;2023-07-29T06:01:13;99906.78;;;20.33;95.61
54270;BME280;40181;51.560;13.000;2023-07-29T06:03:45;99909.84;;;20.46;94.33
54270;BME280;40181;51.560;13.000;2023-07-29T06:06:15;99911.41;;;20.52;94.00
54270;BME280;40181;51.560;13.000;2023-07-29T06:08:44;99915.41;;;20.64;93.63
54270;BME280;40181;51.560;13.000;2023-07-29T06:11:13;99914.13;;;20.74;92.96
54270;BME280;40181;51.560;13.000;2023-07-29T06:13:42;99922.31;;;20.69;92.72
54270;BME280;40181;51.560;13.000;2023-07-29T06:16:11;99918.53;;;20.75;92.28
54270;BME280;40181;51.560;13.000;2023-07-29T06:18:40;99922.41;;;20.66;92.45
54270;BME280;40181;51.560;13.000;2023-07-29T06:21:12;99916.59;;;20.79;91.64
54270;BME280;40181;51.560;13.000;2023-07-29T06:23:42;99912.34;;;20.97;90.74
54270;BME280;40181;51.560;13.000;2023-07-29T06:26:12;99919.88;;;20.87;90.64
54270;BME280;40181;51.560;13.000;2023-07-29T06:28:41;99915.09;;;20.95;90.48
54270;BME280;40181;51.560;13.000;2023-07-29T06:31:10;99905.16;;;20.99;89.56
54270;BME280;40181;51.560;13.000;2023-07-29T06:33:40;99920.81;;;21.08;89.56
54270;BME280;40181;51.560;13.000;2023-07-29T06:36:11;99907.72;;;21.02;88.38
54270;BME280;40181;51.560;13.000;2023-07-29T06:38:41;99900.81;;;21.19;88.75
54270;BME280;40181;51.560;13.000;2023-07-29T06:41:10;99910.56;;;21.20;88.46
54270;BME280;40181;51.560;13.000;2023-07-29T06:43:39;99914.03;;;21.22;88.31
54270;BME280;40181;51.560;13.000;2023-07-29T06:46:08;99912.59;;;21.35;86.89
54270;BME280;40181;51.560;13.000;2023-07-29T06:48:37;99906.31;;;21.36;86.13
54270;BME280;40181;51.560;13.000;2023-07-29T06:51:07;99915.63;;;21.48;86.20
54270;BME280;40181;51.560;13.000;2023-07-29T06:53:38;99913.03;;;21.67;85.08
54270;BME280;40181;51.560;13.000;2023-07-29T06:56:07;99900.06;;;21.79;85.74
54270;BME280;40181;51.560;13.000;2023-07-29T06:58:37;99908.75;;;21.63;84.25
54270;BME280;40181;51.560;13.000;2023-07-29T07:01:06;99897.91;;;21.46;84.65
54270;BME280;40181;51.560;13.000;2023-07-29T07:03:35;99893.56;;;21.43;85.36
54270;BME280;40181;51.560;13.000;2023-07-29T07:06:05;99885.69;;;21.40;84.79
54270;BME280;40181;51.560;13.000;2023-07-29T07:08:34;99882.34;;;21.55;83.85
54270;BME280;40181;51.560;13.000;2023-07-29T07:11:07;99876.88;;;21.59;83.17
54270;BME280;40181;51.560;13.000;2023-07-29T07:13:36;99882.03;;;21.63;82.99
54270;BME280;40181;51.560;13.000;2023-07-29T07:16:05;99875.94;;;21.80;83.03
54270;BME280;40181;51.560;13.000;2023-07-29T07:18:34;99881.34;;;21.58;82.90
54270;BME280;40181;51.560;13.000;2023-07-29T07:21:03;99889.75;;;22.11;82.31
54270;BME280;40181;51.560;13.000;2023-07-29T07:23:32;99889.47;;;22.36;80.86
54270;BME280;40181;51.560;13.000;2023-07-29T07:26:04;99887.59;;;22.19;79.79
54270;BME280;40181;51.560;13.000;2023-07-29T07:28:33;99889.91;;;22.08;79.69
54270;BME280;40181;51.560;13.000;2023-07-29T07:31:02;99883.56;;;22.10;79.76
54270;BME280;40181;51.560;13.000;2023-07-29T07:33:32;99871.47;;;22.21;79.10
54270;BME280;40181;51.560;13.000;2023-07-29T07:36:01;99871.47;;;22.21;78.72
54270;BME280;40181;51.560;13.000;2023-07-29T07:38:30;99865.31;;;22.19;78.40
54270;BME280;40181;51.560;13.000;2023-07-29T07:40:59;99864.81;;;22.10;78.88
54270;BME280;40181;51.560;13.000;2023-07-29T07:43:31;99858.41;;;22.34;78.60
54270;BME280;40181;51.560;13.000;2023-07-29T07:46:01;99862.91;;;22.52;76.79
54270;BME280;40181;51.560;13.000;2023-07-29T07:48:31;99853.50;;;22.63;75.83
54270;BME280;40181;51.560;13.000;2023-07-29T07:51:00;99854.13;;;22.68;76.27
54270;BME280;40181;51.560;13.000;2023-07-29T07:53:37;99853.03;;;23.09;72.77
54270;BME280;40181;51.560;13.000;2023-07-29T07:56:07;99844.75;;;22.96;73.05
54270;BME280;40181;51.560;13.000;2023-07-29T07:58:39;99847.19;;;22.83;73.65
54270;BME280;40181;51.560;13.000;2023-07-29T08:01:08;99845.31;;;23.03;73.98
54270;BME280;40181;51.560;13.000;2023-07-29T08:03:38;99851.91;;;22.96;72.90
54270;BME280;40181;51.560;13.000;2023-07-29T08:06:07;99848.97;;;22.83;74.38
54270;BME280;40181;51.560;13.000;2023-07-29T08:08:36;99852.25;;;23.07;73.07
54270;BME280;40181;51.560;13.000;2023-07-29T08:11:05;99846.72;;;22.92;73.25
54270;BME280;40181;51.560;13.000;2023-07-29T08:13:34;99842.22;;;22.93;73.79
54270;BME280;40181;51.560;13.000;2023-07-29T08:16:06;99842.19;;;22.75;74.48
54270;BME280;40181;51.560;13.000;2023-07-29T08:18:35;99845.91;;;22.90;74.14
54270;BME280;40181;51.560;13.000;2023-07-29T08:21:04;99840.53;;;23.27;72.81
54270;BME280;40181;51.560;13.000;2023-07-29T08:23:34;99844.06;;;23.28;73.00
54270;BME280;40181;51.560;13.000;2023-07-29T08:26:05;99838.34;;;23.53;71.51
54270;BME280;40181;51.560;13.000;2023-07-29T08:28:36;99849.22;;;23.50;73.21
54270;BME280;40181;51.560;13.000;2023-07-29T08:31:08;99834.69;;;23.19;72.04
54270;BME280;40181;51.560;13.000;2023-07-29T08:33:38;99830.47;;;23.32;71.84
54270;BME280;40181;51.560;13.000;2023-07-29T08:36:07;99832.25;;;23.67;71.23
54270;BME280;40181;51.560;13.000;2023-07-29T08:38:36;99831.78;;;23.59;70.17
54270;BME280;40181;51.560;13.000;2023-07-29T08:41:10;99846.44;;;23.52;68.66
54270;BME280;40181;51.560;13.000;2023-07-29T08:43:49;99840.13;;;23.70;68.21
54270;BME280;40181;51.560;13.000;2023-07-29T08:46:23;99834.03;;;23.67;68.51
54270;BME280;40181;51.560;13.000;2023-07-29T08:48:52;99833.59;;;23.58;69.01
54270;BME280;40181;51.560;13.000;2023-07-29T08:51:23;99825.06;;;23.68;69.67
54270;BME280;40181;51.560;13.000;2023-07-29T08:53:52;99833.47;;;23.44;69.86
54270;BME280;40181;51.560;13.000;2023-07-29T08:56:23;99823.34;;;23.31;69.26
54270;BME280;40181;51.560;13.000;2023-07-29T08:58:53;99824.19;;;23.67;69.64
54270;BME280;40181;51.560;13.000;2023-07-29T09:01:28;99820.22;;;23.92;68.29
54270;BME280;40181;51.560;13.000;2023-07-29T09:03:57;99823.06;;;23.71;68.31
54270;BME280;40181;51.560;13.000;2023-07-29T09:06:27;99813.13;;;23.91;68.18
54270;BME280;40181;51.560;13.000;2023-07-29T09:08:56;99802.00;;;24.47;68.07
54270;BME280;40181;51.560;13.000;2023-07-29T09:11:28;99807.00;;;23.71;66.87
54270;BME280;40181;51.560;13.000;2023-07-29T09:13:58;99802.50;;;24.06;67.06
54270;BME280;40181;51.560;13.000;2023-07-29T09:16:29;99814.75;;;23.94;66.08
54270;BME280;40181;51.560;13.000;2023-07-29T09:19:01;99804.41;;;24.20;67.06
54270;BME280;40181;51.560;13.000;2023-07-29T09:21:31;99809.13;;;24.32;65.16
54270;BME280;40181;51.560;13.000;2023-07-29T09:24:03;99812.06;;;24.27;66.28
54270;BME280;40181;51.560;13.000;2023-07-29T09:26:33;99803.56;;;24.19;65.90
54270;BME280;40181;51.560;13.000;2023-07-29T09:29:02;99812.50;;;24.02;66.05
54270;BME280;40181;51.560;13.000;2023-07-29T09:31:34;99815.94;;;24.22;65.02
54270;BME280;40181;51.560;13.000;2023-07-29T09:34:04;99821.50;;;24.01;64.10
54270;BME280;40181;51.560;13.000;2023-07-29T09:36:34;99813.88;;;24.11;63.83
54270;BME280;40181;51.560;13.000;2023-07-29T09:39:03;99803.38;;;24.06;65.00
54270;BME280;40181;51.560;13.000;2023-07-29T09:41:38;99818.72;;;23.86;64.90
54270;BME280;40181;51.560;13.000;2023-07-29T09:44:07;99804.00;;;23.94;63.97
54270;BME280;40181;51.560;13.000;2023-07-29T09:46:45;99807.03;;;24.05;64.32
54270;BME280;40181;51.560;13.000;2023-07-29T09:49:15;99802.44;;;24.07;65.05
54270;BME280;40181;51.560;13.000;2023-07-29T09:51:44;99805.44;;;24.17;66.04
54270;BME280;40181;51.560;13.000;2023-07-29T09:54:13;99799.75;;;24.23;65.66
54270;BME280;40181;51.560;13.000;2023-07-29T09:56:42;99797.41;;;23.83;66.49
54270;BME280;40181;51.560;13.000;2023-07-29T09:59:11;99805.75;;;23.95;66.00
54270;BME280;40181;51.560;13.000;2023-07-29T10:01:43;99802.28;;;23.93;69.21
54270;BME280;40181;51.560;13.000;2023-07-29T10:04:13;99805.13;;;23.89;68.11
54270;BME280;40181;51.560;13.000;2023-07-29T10:06:43;99804.50;;;23.84;66.77
54270;BME280;40181;51.560;13.000;2023-07-29T10:09:14;99811.41;;;23.72;66.20
54270;BME280;40181;51.560;13.000;2023-07-29T10:11:44;99802.06;;;23.80;66.32
54270;BME280;40181;51.560;13.000;2023-07-29T10:14:15;99798.25;;;23.68;66.80
54270;BME280;40181;51.560;13.000;2023-07-29T10:16:48;99795.56;;;24.01;67.42
54270;BME280;40181;51.560;13.000;2023-07-29T10:19:18;99796.34;;;24.03;66.38
54270;BME280;40181;51.560;13.000;2023-07-29T10:21:48;99794.66;;;23.85;66.89
54270;BME280;40181;51.560;13.000;2023-07-29T10:24:19;99788.53;;;23.99;67.19
54270;BME280;40181;51.560;13.000;2023-07-29T10:26:56;99786.97;;;23.95;67.45
54270;BME280;40181;51.560;13.000;2023-07-29T10:29:30;99783.66;;;24.07;67.89
54270;BME280;40181;51.560;13.000;2023-07-29T10:32:04;99787.50;;;24.01;67.03
54270;BME280;40181;51.560;13.000;2023-07-29T10:34:35;99789.31;;;23.85;67.89
54270;BME280;40181;51.560;13.000;2023-07-29T10:37:04;99784.03;;;23.99;67.24
54270;BME280;40181;51.560;13.000;2023-07-29T10:39:38;99775.53;;;24.09;67.63
54270;BME280;40181;51.560;13.000;2023-07-29T10:42:07;99765.91;;;24.21;67.72
54270;BME280;40181;51.560;13.000;2023-07-29T10:44:46;99768.44;;;24.24;67.18
54270;BME280;40181;51.560;13.000;2023-07-29T10:47:23;99776.22;;;23.95;67.54
54270;BME280;40181;51.560;13.000;2023-07-29T10:49:55;99760.59;;;24.03;67.15
54270;BME280;40181;51.560;13.000;2023-07-29T10:52:31;99766.19;;;24.32;66.40
54270;BME280;40181;51.560;13.000;2023-07-29T10:55:25;99778.09;;;24.10;67.53
54270;BME280;40181;51.560;13.000;2023-07-29T10:58:07;99776.84;;;24.00;67.62
54270;BME280;40181;51.560;13.000;2023-07-29T11:00:42;99778.66;;;23.83;68.54
54270;BME280;40181;51.560;13.000;2023-07-29T11:03:14;99777.97;;;24.13;69.16
54270;BME280;40181;51.560;13.000;2023-07-29T11:05:48;99778.03;;;24.28;67.81
54270;BME280;40181;51.560;13.000;2023-07-29T11:08:19;99775.44;;;24.42;67.89
54270;BME280;40181;51.560;13.000;2023-07-29T11:11:01;99767.00;;;24.49;67.50
54270;BME280;40181;51.560;13.000;2023-07-29T11:13:33;99769.16;;;24.58;68.15
54270;BME280;40181;51.560;13.000;2023-07-29T11:16:04;99749.88;;;24.51;68.08
54270;BME280;40181;51.560;13.000;2023-07-29T11:18:36;99730.78;;;25.03;68.07
54270;BME280;40181;51.560;13.000;2023-07-29T11:21:07;99742.41;;;25.03;66.06
54270;BME280;40181;51.560;13.000;2023-07-29T11:23:37;99745.78;;;24.60;67.15
54270;BME280;40181;51.560;13.000;2023-07-29T11:26:06;99742.19;;;24.92;65.73
54270;BME280;40181;51.560;13.000;2023-07-29T11:28:38;99737.38;;;24.97;65.98
54270;BME280;40181;51.560;13.000;2023-07-29T11:31:08;99733.09;;;24.94;65.55
54270;BME280;40181;51.560;13.000;2023-07-29T11:33:39;99737.75;;;24.60;66.94
54270;BME280;40181;51.560;13.000;2023-07-29T11:36:17;99736.19;;;25.17;65.11
54270;BME280;40181;51.560;13.000;2023-07-29T11:38:49;99724.28;;;25.07;65.50
54270;BME280;40181;51.560;13.000;2023-07-29T11:41:20;99731.78;;;25.45;63.28
54270;BME280;40181;51.560;13.000;2023-07-29T11:43:50;99732.53;;;25.18;64.76
54270;BME280;40181;51.560;13.000;2023-07-29T11:46:21;99732.41;;;25.05;63.68
54270;BME280;40181;51.560;13.000;2023-07-29T11:48:53;99727.81;;;24.93;64.15
54270;BME280;40181;51.560;13.000;2023-07-29T11:51:23;99721.75;;;24.89;61.86
54270;BME280;40181;51.560;13.000;2023-07-29T11:53:54;99707.31;;;25.21;62.52
54270;BME280;40181;51.560;13.000;2023-07-29T11:56:23;99703.16;;;25.00;63.29
54270;BME280;40181;51.560;13.000;2023-07-29T11:58:54;99708.22;;;24.91;63.65
54270;BME280;40181;51.560;13.000;2023-07-29T12:01:23;99710.31;;;24.85;63.85
54270;BME280;40181;51.560;13.000;2023-07-29T12:03:55;99687.84;;;25.75;62.02
54270;BME280;40181;51.560;13.000;2023-07-29T12:06:26;99709.75;;;25.69;61.41
54270;BME280;40181;51.560;13.000;2023-07-29T12:08:56;99705.28;;;25.39;61.63
54270;BME280;40181;51.560;13.000;2023-07-29T12:11:26;99712.28;;;25.12;63.10
54270;BME280;40181;51.560;13.000;2023-07-29T12:13:55;99698.16;;;25.09;63.02
54270;BME280;40181;51.560;13.000;2023-07-29T12:16:24;99698.25;;;24.93;64.24
54270;BME280;40181;51.560;13.000;2023-07-29T12:19:02;99694.53;;;25.24;61.96
54270;BME280;40181;51.560;13.000;2023-07-29T12:21:33;99705.34;;;24.94;62.41
54270;BME280;40181;51.560;13.000;2023-07-29T12:24:02;99693.84;;;24.92;61.74
54270;BME280;40181;51.560;13.000;2023-07-29T12:26:32;99702.44;;;24.66;62.09
54270;BME280;40181;51.560;13.000;2023-07-29T12:29:11;99701.97;;;24.90;61.72
54270;BME280;40181;51.560;13.000;2023-07-29T12:31:41;99697.88;;;24.68;61.63
54270;BME280;40181;51.560;13.000;2023-07-29T12:34:17;99697.03;;;25.13;61.08
54270;BME280;40181;51.560;13.000;2023-07-29T12:36:48;99690.84;;;24.82;61.69
54270;BME280;40181;51.560;13.000;2023-07-29T12:39:20;99695.75;;;25.04;61.55
54270;BME280;40181;51.560;13.000;2023-07-29T12:41:51;99693.03;;;25.49;62.69
54270;BME280;40181;51.560;13.000;2023-07-29T12:44:22;99701.66;;;25.40;60.88
54270;BME280;40181;51.560;13.000;2023-07-29T12:46:52;99670.53;;;25.36;60.02
54270;BME280;40181;51.560;13.000;2023-07-29T12:49:24;99679.00;;;25.44;59.70
54270;BME280;40181;51.560;13.000;2023-07-29T12:51:54;99671.25;;;25.54;57.79
54270;BME280;40181;51.560;13.000;2023-07-29T12:54:24;99680.75;;;25.60;57.78
54270;BME280;40181;51.560;13.000;2023-07-29T12:56:53;99662.66;;;25.18;59.03
54270;BME280;40181;51.560;13.000;2023-07-29T12:59:22;99655.56;;;26.03;57.75
54270;BME280;40181;51.560;13.000;2023-07-29T13:01:51;99672.56;;;25.47;57.83
54270;BME280;40181;51.560;13.000;2023-07-29T13:04:20;99666.97;;;25.79;59.29